ΕΜΥ, Εθνική Μετεωρολογική Υπηρεσία - Δελτία Καιρού, Προγνώσεις

ΑΕΡΟΝΑΥΤΙΛΙΑ

GREEK AIRPORTS CODES

LGLE 272100Z AUTO 27007KT //// -RA ////// 12/09 Q1017 RE// RMK 0.9MM=

EUROPEAN AIRPORTS CODES

LFPO 272100Z 23015KT 9999 BKN016 BKN026 BKN046 09/06 Q1001TEMPO 21015G30KT 4000 SHRA BKN015TCU=